sensor_id;sensor_type;location;lat;lon;timestamp;temperature;humidity
56336;DHT22;42241;53.510;10.170;2023-01-15T00:01:35;7.10;99.90
56336;DHT22;42241;53.510;10.170;2023-01-15T00:04:07;7.10;99.90
56336;DHT22;42241;53.510;10.170;2023-01-15T00:06:35;7.10;99.90
56336;DHT22;42241;53.510;10.170;2023-01-15T00:09:01;7.00;99.90
56336;DHT22;42241;53.510;10.170;2023-01-15T00:11:27;7.00;99.90
56336;DHT22;42241;53.510;10.170;2023-01-15T00:13:52;7.00;99.90
56336;DHT22;42241;53.510;10.170;2023-01-15T00:16:19;7.00;99.90
56336;DHT22;42241;53.510;10.170;2023-01-15T00:18:49;7.00;99.90
56336;DHT22;42241;53.510;10.170;2023-01-15T00:21:15;6.90;99.90
56336;DHT22;42241;53.510;10.170;2023-01-15T00:23:41;6.80;99.90
56336;DHT22;42241;53.510;10.170;2023-01-15T00:26:26;6.90;99.90
56336;DHT22;42241;53.510;10.170;2023-01-15T00:29:10;6.90;99.90
56336;DHT22;42241;53.510;10.170;2023-01-15T00:31:36;6.80;99.90
56336;DHT22;42241;53.510;10.170;2023-01-15T00:34:01;6.80;99.90
56336;DHT22;42241;53.510;10.170;2023-01-15T00:36:27;6.80;99.90
56336;DHT22;42241;53.510;10.170;2023-01-15T00:38:52;6.70;99.90
56336;DHT22;42241;53.510;10.170;2023-01-15T00:41:20;6.70;99.90
56336;DHT22;42241;53.510;10.170;2023-01-15T00:43:46;6.70;99.90
56336;DHT22;42241;53.510;10.170;2023-01-15T00:46:12;6.70;99.90
56336;DHT22;42241;53.510;10.170;2023-01-15T00:48:37;6.70;99.90
56336;DHT22;42241;53.510;10.170;2023-01-15T00:51:03;6.70;99.90
56336;DHT22;42241;53.510;10.170;2023-01-15T00:53:31;6.60;99.90
56336;DHT22;42241;53.510;10.170;2023-01-15T00:55:57;6.60;99.90
56336;DHT22;42241;53.510;10.170;2023-01-15T00:58:23;6.60;99.90
56336;DHT22;42241;53.510;10.170;2023-01-15T01:00:54;6.60;99.90
56336;DHT22;42241;53.510;10.170;2023-01-15T01:03:20;6.50;99.90
56336;DHT22;42241;53.510;10.170;2023-01-15T01:05:46;6.60;99.90
56336;DHT22;42241;53.510;10.170;2023-01-15T01:08:12;6.50;99.90
56336;DHT22;42241;53.510;10.170;2023-01-15T01:10:40;6.50;99.90
56336;DHT22;42241;53.510;10.170;2023-01-15T01:13:08;6.50;99.90
56336;DHT22;42241;53.510;10.170;2023-01-15T01:15:34;6.50;99.90
56336;DHT22;42241;53.510;10.170;2023-01-15T01:17:59;6.50;99.90
56336;DHT22;42241;53.510;10.170;2023-01-15T01:20:25;6.50;99.90
56336;DHT22;42241;53.510;10.170;2023-01-15T01:22:51;6.50;99.90
56336;DHT22;42241;53.510;10.170;2023-01-15T01:25:17;6.40;99.90
56336;DHT22;42241;53.510;10.170;2023-01-15T01:27:45;6.40;99.90
56336;DHT22;42241;53.510;10.170;2023-01-15T01:30:10;6.40;99.90
56336;DHT22;42241;53.510;10.170;2023-01-15T01:32:37;6.40;99.90
56336;DHT22;42241;53.510;10.170;2023-01-15T01:35:02;6.40;99.90
56336;DHT22;42241;53.510;10.170;2023-01-15T01:37:28;6.40;99.90
56336;DHT22;42241;53.510;10.170;2023-01-15T01:39:56;6.40;99.90
56336;DHT22;42241;53.510;10.170;2023-01-15T01:42:23;6.40;99.90
56336;DHT22;42241;53.510;10.170;2023-01-15T01:44:57;6.40;99.90
56336;DHT22;42241;53.510;10.170;2023-01-15T01:47:24;6.40;99.90
56336;DHT22;42241;53.510;10.170;2023-01-15T01:49:53;6.50;99.90
56336;DHT22;42241;53.510;10.170;2023-01-15T01:52:20;6.50;99.90
56336;DHT22;42241;53.510;10.170;2023-01-15T01:54:47;6.50;99.90
56336;DHT22;42241;53.510;10.170;2023-01-15T01:57:16;6.50;99.90
56336;DHT22;42241;53.510;10.170;2023-01-15T01:59:45;6.50;99.90
56336;DHT22;42241;53.510;10.170;2023-01-15T02:02:11;6.50;99.90
56336;DHT22;42241;53.510;10.170;2023-01-15T02:04:36;6.50;99.90
56336;DHT22;42241;53.510;10.170;2023-01-15T02:07:03;6.50;99.90
56336;DHT22;42241;53.510;10.170;2023-01-15T02:09:28;6.50;99.90
56336;DHT22;42241;53.510;10.170;2023-01-15T02:11:55;6.60;99.90
56336;DHT22;42241;53.510;10.170;2023-01-15T02:14:27;6.60;99.90
56336;DHT22;42241;53.510;10.170;2023-01-15T02:16:55;6.60;99.90
56336;DHT22;42241;53.510;10.170;2023-01-15T02:27:04;6.60;99.90
56336;DHT22;42241;53.510;10.170;2023-01-15T02:32:13;6.60;99.90
56336;DHT22;42241;53.510;10.170;2023-01-15T02:34:42;6.60;99.90
56336;DHT22;42241;53.510;10.170;2023-01-15T02:37:09;6.60;99.90
56336;DHT22;42241;53.510;10.170;2023-01-15T02:39:37;6.60;99.90
56336;DHT22;42241;53.510;10.170;2023-01-15T02:42:05;6.60;99.90
56336;DHT22;42241;53.510;10.170;2023-01-15T02:44:34;6.70;99.90
56336;DHT22;42241;53.510;10.170;2023-01-15T02:47:02;6.60;99.90
56336;DHT22;42241;53.510;10.170;2023-01-15T02:49:28;6.60;99.90
56336;DHT22;42241;53.510;10.170;2023-01-15T02:52:02;6.60;99.90
56336;DHT22;42241;53.510;10.170;2023-01-15T02:54:30;6.60;99.90
56336;DHT22;42241;53.510;10.170;2023-01-15T02:56:58;6.70;99.90
56336;DHT22;42241;53.510;10.170;2023-01-15T02:59:29;6.70;99.90
56336;DHT22;42241;53.510;10.170;2023-01-15T03:02:02;6.70;99.90
56336;DHT22;42241;53.510;10.170;2023-01-15T03:09:41;6.70;99.90
56336;DHT22;42241;53.510;10.170;2023-01-15T03:14:38;6.70;99.90
56336;DHT22;42241;53.510;10.170;2023-01-15T03:17:09;6.70;99.90
56336;DHT22;42241;53.510;10.170;2023-01-15T03:19:45;6.70;99.90
56336;DHT22;42241;53.510;10.170;2023-01-15T03:27:14;6.60;99.90
56336;DHT22;42241;53.510;10.170;2023-01-15T03:29:45;6.60;99.90
56336;DHT22;42241;53.510;10.170;2023-01-15T03:32:13;6.60;99.90
56336;DHT22;42241;53.510;10.170;2023-01-15T03:34:43;6.60;99.90
56336;DHT22;42241;53.510;10.170;2023-01-15T03:37:11;6.60;99.90
56336;DHT22;42241;53.510;10.170;2023-01-15T03:39:39;6.60;99.90
56336;DHT22;42241;53.510;10.170;2023-01-15T03:49:45;6.60;99.90
56336;DHT22;42241;53.510;10.170;2023-01-15T03:52:30;6.50;99.90
56336;DHT22;42241;53.510;10.170;2023-01-15T03:57:58;6.50;99.90
56336;DHT22;42241;53.510;10.170;2023-01-15T04:00:25;6.50;99.90
56336;DHT22;42241;53.510;10.170;2023-01-15T04:02:52;6.50;99.90
56336;DHT22;42241;53.510;10.170;2023-01-15T04:05:18;6.40;99.90
56336;DHT22;42241;53.510;10.170;2023-01-15T04:07:44;6.40;99.90
56336;DHT22;42241;53.510;10.170;2023-01-15T04:10:14;6.40;99.90
56336;DHT22;42241;53.510;10.170;2023-01-15T04:12:40;6.30;99.90
56336;DHT22;42241;53.510;10.170;2023-01-15T04:15:10;6.30;99.90
56336;DHT22;42241;53.510;10.170;2023-01-15T04:17:36;6.30;99.90
56336;DHT22;42241;53.510;10.170;2023-01-15T04:20:04;6.30;99.90
56336;DHT22;42241;53.510;10.170;2023-01-15T04:22:32;6.30;99.90
56336;DHT22;42241;53.510;10.170;2023-01-15T04:25:01;6.30;99.90
56336;DHT22;42241;53.510;10.170;2023-01-15T04:27:26;6.30;99.90
56336;DHT22;42241;53.510;10.170;2023-01-15T04:29:52;6.30;99.90
56336;DHT22;42241;53.510;10.170;2023-01-15T04:32:17;6.30;99.90
56336;DHT22;42241;53.510;10.170;2023-01-15T04:34:43;6.20;99.90
56336;DHT22;42241;53.510;10.170;2023-01-15T04:37:08;6.20;99.90
56336;DHT22;42241;53.510;10.170;2023-01-15T04:39:33;6.20;99.90
56336;DHT22;42241;53.510;10.170;2023-01-15T04:41:59;6.20;99.90
56336;DHT22;42241;53.510;10.170;2023-01-15T04:44:43;6.20;99.90
56336;DHT22;42241;53.510;10.170;2023-01-15T04:47:09;6.30;99.90
56336;DHT22;42241;53.510;10.170;2023-01-15T04:49:34;6.30;99.90
56336;DHT22;42241;53.510;10.170;2023-01-15T04:52:00;6.30;99.90
56336;DHT22;42241;53.510;10.170;2023-01-15T04:54:25;6.30;99.90
56336;DHT22;42241;53.510;10.170;2023-01-15T04:56:52;6.30;99.90
56336;DHT22;42241;53.510;10.170;2023-01-15T04:59:18;6.20;99.90
56336;DHT22;42241;53.510;10.170;2023-01-15T05:01:44;6.20;99.90
56336;DHT22;42241;53.510;10.170;2023-01-15T05:04:14;6.20;99.90
56336;DHT22;42241;53.510;10.170;2023-01-15T05:06:42;6.30;99.90
56336;DHT22;42241;53.510;10.170;2023-01-15T05:09:10;6.20;99.90
56336;DHT22;42241;53.510;10.170;2023-01-15T05:11:38;6.20;99.90
56336;DHT22;42241;53.510;10.170;2023-01-15T05:14:04;6.10;99.90
56336;DHT22;42241;53.510;10.170;2023-01-15T05:16:30;6.10;99.90
56336;DHT22;42241;53.510;10.170;2023-01-15T05:18:57;6.00;99.90
56336;DHT22;42241;53.510;10.170;2023-01-15T05:21:24;6.00;99.90
56336;DHT22;42241;53.510;10.170;2023-01-15T05:23:53;6.00;99.90
56336;DHT22;42241;53.510;10.170;2023-01-15T05:26:19;6.00;99.90
56336;DHT22;42241;53.510;10.170;2023-01-15T05:28:44;5.90;99.90
56336;DHT22;42241;53.510;10.170;2023-01-15T05:31:10;6.00;99.90
56336;DHT22;42241;53.510;10.170;2023-01-15T05:33:37;6.00;99.90
56336;DHT22;42241;53.510;10.170;2023-01-15T05:36:07;5.90;99.90
56336;DHT22;42241;53.510;10.170;2023-01-15T05:38:35;6.00;99.90
56336;DHT22;42241;53.510;10.170;2023-01-15T05:41:07;5.90;99.90
56336;DHT22;42241;53.510;10.170;2023-01-15T05:43:58;5.90;99.90
56336;DHT22;42241;53.510;10.170;2023-01-15T05:46:24;6.00;99.90
56336;DHT22;42241;53.510;10.170;2023-01-15T05:48:49;6.00;99.90
56336;DHT22;42241;53.510;10.170;2023-01-15T05:51:17;6.00;99.90
56336;DHT22;42241;53.510;10.170;2023-01-15T05:53:45;5.90;99.90
56336;DHT22;42241;53.510;10.170;2023-01-15T05:56:13;5.90;99.90
56336;DHT22;42241;53.510;10.170;2023-01-15T05:58:40;5.90;99.90
56336;DHT22;42241;53.510;10.170;2023-01-15T06:01:07;6.00;99.90
56336;DHT22;42241;53.510;10.170;2023-01-15T06:03:33;5.90;99.90
56336;DHT22;42241;53.510;10.170;2023-01-15T06:05:58;5.90;99.90
56336;DHT22;42241;53.510;10.170;2023-01-15T06:08:24;5.90;99.90
56336;DHT22;42241;53.510;10.170;2023-01-15T06:10:52;5.80;99.90
56336;DHT22;42241;53.510;10.170;2023-01-15T06:13:20;5.90;99.90
56336;DHT22;42241;53.510;10.170;2023-01-15T06:15:48;5.90;99.90
56336;DHT22;42241;53.510;10.170;2023-01-15T06:18:13;5.90;99.90
56336;DHT22;42241;53.510;10.170;2023-01-15T06:20:42;5.90;99.90
56336;DHT22;42241;53.510;10.170;2023-01-15T06:23:07;5.90;99.90
56336;DHT22;42241;53.510;10.170;2023-01-15T06:25:34;5.80;99.90
56336;DHT22;42241;53.510;10.170;2023-01-15T06:28:03;5.80;99.90
56336;DHT22;42241;53.510;10.170;2023-01-15T06:30:29;5.80;99.90
56336;DHT22;42241;53.510;10.170;2023-01-15T06:32:54;5.80;99.90
56336;DHT22;42241;53.510;10.170;2023-01-15T06:35:20;5.70;99.90
56336;DHT22;42241;53.510;10.170;2023-01-15T06:37:47;5.70;99.90
56336;DHT22;42241;53.510;10.170;2023-01-15T06:40:13;5.70;99.90
56336;DHT22;42241;53.510;10.170;2023-01-15T06:42:38;5.70;99.90
56336;DHT22;42241;53.510;10.170;2023-01-15T06:45:22;5.70;99.90
56336;DHT22;42241;53.510;10.170;2023-01-15T06:48:07;5.70;99.90
56336;DHT22;42241;53.510;10.170;2023-01-15T06:50:32;5.70;99.90
56336;DHT22;42241;53.510;10.170;2023-01-15T06:52:57;5.70;99.90
56336;DHT22;42241;53.510;10.170;2023-01-15T06:55:25;5.70;99.90
56336;DHT22;42241;53.510;10.170;2023-01-15T06:57:51;5.70;99.90
56336;DHT22;42241;53.510;10.170;2023-01-15T07:00:18;5.70;99.90
56336;DHT22;42241;53.510;10.170;2023-01-15T07:02:44;5.70;99.90
56336;DHT22;42241;53.510;10.170;2023-01-15T07:05:12;5.70;99.90
56336;DHT22;42241;53.510;10.170;2023-01-15T07:07:40;5.70;99.90
56336;DHT22;42241;53.510;10.170;2023-01-15T07:10:05;5.70;99.90
56336;DHT22;42241;53.510;10.170;2023-01-15T07:12:33;5.80;99.90
56336;DHT22;42241;53.510;10.170;2023-01-15T07:15:01;5.80;99.90
56336;DHT22;42241;53.510;10.170;2023-01-15T07:17:29;5.70;99.90
56336;DHT22;42241;53.510;10.170;2023-01-15T07:19:54;5.70;99.90
56336;DHT22;42241;53.510;10.170;2023-01-15T07:22:22;5.70;99.90
56336;DHT22;42241;53.510;10.170;2023-01-15T07:24:48;5.60;99.90
56336;DHT22;42241;53.510;10.170;2023-01-15T07:27:15;5.60;99.90
56336;DHT22;42241;53.510;10.170;2023-01-15T07:29:43;5.60;99.90
56336;DHT22;42241;53.510;10.170;2023-01-15T07:32:09;5.60;99.90
56336;DHT22;42241;53.510;10.170;2023-01-15T07:34:37;5.60;99.90
56336;DHT22;42241;53.510;10.170;2023-01-15T07:37:08;5.60;99.90
56336;DHT22;42241;53.510;10.170;2023-01-15T07:39:37;5.60;99.90
56336;DHT22;42241;53.510;10.170;2023-01-15T07:42:02;5.60;99.90
56336;DHT22;42241;53.510;10.170;2023-01-15T07:44:47;5.60;99.90
56336;DHT22;42241;53.510;10.170;2023-01-15T07:47:31;5.60;99.90
56336;DHT22;42241;53.510;10.170;2023-01-15T07:50:17;5.60;99.90
56336;DHT22;42241;53.510;10.170;2023-01-15T07:52:43;5.60;99.90
56336;DHT22;42241;53.510;10.170;2023-01-15T07:55:09;5.60;99.90
56336;DHT22;42241;53.510;10.170;2023-01-15T07:57:36;5.60;99.90
56336;DHT22;42241;53.510;10.170;2023-01-15T08:00:03;5.70;99.90
56336;DHT22;42241;53.510;10.170;2023-01-15T08:02:28;5.70;99.90
56336;DHT22;42241;53.510;10.170;2023-01-15T08:04:54;5.70;99.90
56336;DHT22;42241;53.510;10.170;2023-01-15T08:07:20;5.70;99.90
56336;DHT22;42241;53.510;10.170;2023-01-15T08:09:47;5.80;99.90
56336;DHT22;42241;53.510;10.170;2023-01-15T08:12:13;5.80;99.90
56336;DHT22;42241;53.510;10.170;2023-01-15T08:14:59;5.80;99.90
56336;DHT22;42241;53.510;10.170;2023-01-15T08:17:48;5.90;99.90
56336;DHT22;42241;53.510;10.170;2023-01-15T08:20:17;5.80;99.90
56336;DHT22;42241;53.510;10.170;2023-01-15T08:22:46;5.90;99.90
56336;DHT22;42241;53.510;10.170;2023-01-15T08:25:15;5.90;99.90
56336;DHT22;42241;53.510;10.170;2023-01-15T08:27:41;5.90;99.90
56336;DHT22;42241;53.510;10.170;2023-01-15T08:30:17;5.90;99.90
56336;DHT22;42241;53.510;10.170;2023-01-15T08:32:43;5.90;99.90
56336;DHT22;42241;53.510;10.170;2023-01-15T08:35:11;5.90;99.90
56336;DHT22;42241;53.510;10.170;2023-01-15T08:37:37;6.00;99.90
56336;DHT22;42241;53.510;10.170;2023-01-15T08:40:04;6.10;99.90
56336;DHT22;42241;53.510;10.170;2023-01-15T08:42:30;6.20;99.90
56336;DHT22;42241;53.510;10.170;2023-01-15T08:44:55;6.20;99.90
56336;DHT22;42241;53.510;10.170;2023-01-15T08:47:21;6.20;99.90
56336;DHT22;42241;53.510;10.170;2023-01-15T08:49:46;6.10;99.90
56336;DHT22;42241;53.510;10.170;2023-01-15T08:52:13;6.10;99.90
56336;DHT22;42241;53.510;10.170;2023-01-15T08:54:38;6.10;99.90
56336;DHT22;42241;53.510;10.170;2023-01-15T08:57:07;6.10;99.90
56336;DHT22;42241;53.510;10.170;2023-01-15T08:59:36;6.00;99.90
56336;DHT22;42241;53.510;10.170;2023-01-15T09:02:08;6.00;99.90
56336;DHT22;42241;53.510;10.170;2023-01-15T09:04:34;6.00;99.90
56336;DHT22;42241;53.510;10.170;2023-01-15T09:06:59;6.00;99.90
56336;DHT22;42241;53.510;10.170;2023-01-15T09:09:29;6.00;99.90
56336;DHT22;42241;53.510;10.170;2023-01-15T09:11:57;5.90;99.90
56336;DHT22;42241;53.510;10.170;2023-01-15T09:14:23;6.00;99.90
56336;DHT22;42241;53.510;10.170;2023-01-15T09:16:48;6.00;99.90
56336;DHT22;42241;53.510;10.170;2023-01-15T09:19:14;6.00;99.90
56336;DHT22;42241;53.510;10.170;2023-01-15T09:21:39;6.00;99.90
56336;DHT22;42241;53.510;10.170;2023-01-15T09:24:08;6.00;99.90
56336;DHT22;42241;53.510;10.170;2023-01-15T09:26:34;6.10;99.90
56336;DHT22;42241;53.510;10.170;2023-01-15T09:29:01;6.20;99.90
56336;DHT22;42241;53.510;10.170;2023-01-15T09:31:26;6.10;99.90
56336;DHT22;42241;53.510;10.170;2023-01-15T09:33:52;6.00;99.90
56336;DHT22;42241;53.510;10.170;2023-01-15T09:36:19;6.00;99.90
56336;DHT22;42241;53.510;10.170;2023-01-15T09:38:50;6.00;99.90
56336;DHT22;42241;53.510;10.170;2023-01-15T09:41:26;6.00;99.90
56336;DHT22;42241;53.510;10.170;2023-01-15T09:54:43;9.60;99.90
56336;DHT22;42241;53.510;10.170;2023-01-15T09:57:11;10.30;99.90
56336;DHT22;42241;53.510;10.170;2023-01-15T09:59:45;11.10;99.90
56336;DHT22;42241;53.510;10.170;2023-01-15T10:04:44;12.10;99.90
56336;DHT22;42241;53.510;10.170;2023-01-15T10:09:37;13.80;99.90
56336;DHT22;42241;53.510;10.170;2023-01-15T10:12:06;14.50;99.90
56336;DHT22;42241;53.510;10.170;2023-01-15T10:17:37;14.80;99.90
56336;DHT22;42241;53.510;10.170;2023-01-15T10:20:13;14.80;99.90
56336;DHT22;42241;53.510;10.170;2023-01-15T10:25:08;15.20;99.90
56336;DHT22;42241;53.510;10.170;2023-01-15T10:27:36;14.50;99.90
56336;DHT22;42241;53.510;10.170;2023-01-15T10:30:16;14.70;99.90
56336;DHT22;42241;53.510;10.170;2023-01-15T10:32:45;14.10;99.90
56336;DHT22;42241;53.510;10.170;2023-01-15T10:35:38;12.60;99.90
56336;DHT22;42241;53.510;10.170;2023-01-15T10:43:17;10.70;99.90
56336;DHT22;42241;53.510;10.170;2023-01-15T10:45:47;11.70;99.90
56336;DHT22;42241;53.510;10.170;2023-01-15T10:48:30;12.00;99.90
56336;DHT22;42241;53.510;10.170;2023-01-15T10:50:57;11.90;99.90
56336;DHT22;42241;53.510;10.170;2023-01-15T10:56:07;10.90;99.90
56336;DHT22;42241;53.510;10.170;2023-01-15T10:58:42;11.10;99.90
56336;DHT22;42241;53.510;10.170;2023-01-15T11:01:15;11.30;99.90
56336;DHT22;42241;53.510;10.170;2023-01-15T11:03:43;12.50;99.90
56336;DHT22;42241;53.510;10.170;2023-01-15T11:06:16;12.90;99.90
56336;DHT22;42241;53.510;10.170;2023-01-15T11:08:52;12.70;99.90
56336;DHT22;42241;53.510;10.170;2023-01-15T11:11:26;13.00;99.90
56336;DHT22;42241;53.510;10.170;2023-01-15T11:14:12;12.30;99.90
56336;DHT22;42241;53.510;10.170;2023-01-15T11:16:56;11.40;99.90
56336;DHT22;42241;53.510;10.170;2023-01-15T11:19:33;11.30;99.90
56336;DHT22;42241;53.510;10.170;2023-01-15T11:22:20;11.00;99.90
56336;DHT22;42241;53.510;10.170;2023-01-15T11:25:00;11.20;99.90
56336;DHT22;42241;53.510;10.170;2023-01-15T11:27:31;10.20;99.90
56336;DHT22;42241;53.510;10.170;2023-01-15T11:29:58;9.90;99.90
56336;DHT22;42241;53.510;10.170;2023-01-15T11:32:27;9.30;99.90
56336;DHT22;42241;53.510;10.170;2023-01-15T11:34:55;8.90;99.90
56336;DHT22;42241;53.510;10.170;2023-01-15T11:37:21;8.60;99.90
56336;DHT22;42241;53.510;10.170;2023-01-15T11:39:53;8.40;99.90
56336;DHT22;42241;53.510;10.170;2023-01-15T11:42:22;8.20;99.90
56336;DHT22;42241;53.510;10.170;2023-01-15T11:45:15;8.00;99.90
56336;DHT22;42241;53.510;10.170;2023-01-15T11:48:00;8.00;99.90
56336;DHT22;42241;53.510;10.170;2023-01-15T11:53:40;7.90;99.90
56336;DHT22;42241;53.510;10.170;2023-01-15T11:56:10;7.40;99.90
56336;DHT22;42241;53.510;10.170;2023-01-15T12:01:08;6.40;99.90
56336;DHT22;42241;53.510;10.170;2023-01-15T12:03:36;5.90;99.90
56336;DHT22;42241;53.510;10.170;2023-01-15T12:06:09;5.70;99.90
56336;DHT22;42241;53.510;10.170;2023-01-15T12:08:45;5.50;99.90
56336;DHT22;42241;53.510;10.170;2023-01-15T12:18:57;8.80;99.90
56336;DHT22;42241;53.510;10.170;2023-01-15T12:29:37;10.80;99.90
56336;DHT22;42241;53.510;10.170;2023-01-15T12:32:09;8.80;99.90
56336;DHT22;42241;53.510;10.170;2023-01-15T12:34:41;8.10;99.90
56336;DHT22;42241;53.510;10.170;2023-01-15T12:37:26;8.80;99.90
56336;DHT22;42241;53.510;10.170;2023-01-15T12:39:54;10.20;99.90
56336;DHT22;42241;53.510;10.170;2023-01-15T12:42:22;10.50;99.90
56336;DHT22;42241;53.510;10.170;2023-01-15T12:45:08;10.70;99.90
56336;DHT22;42241;53.510;10.170;2023-01-15T12:50:05;8.40;99.90
56336;DHT22;42241;53.510;10.170;2023-01-15T12:52:37;7.70;99.90
56336;DHT22;42241;53.510;10.170;2023-01-15T12:55:18;6.90;99.90
56336;DHT22;42241;53.510;10.170;2023-01-15T12:57:50;6.60;99.90
56336;DHT22;42241;53.510;10.170;2023-01-15T13:00:23;6.30;99.90
56336;DHT22;42241;53.510;10.170;2023-01-15T13:05:38;7.00;99.90
56336;DHT22;42241;53.510;10.170;2023-01-15T13:08:11;9.70;99.90
56336;DHT22;42241;53.510;10.170;2023-01-15T13:10:38;12.30;99.90
56336;DHT22;42241;53.510;10.170;2023-01-15T13:20:48;11.60;99.90
56336;DHT22;42241;53.510;10.170;2023-01-15T13:33:59;7.20;99.90
56336;DHT22;42241;53.510;10.170;2023-01-15T13:36:36;7.10;99.90
56336;DHT22;42241;53.510;10.170;2023-01-15T13:39:04;6.90;99.90
56336;DHT22;42241;53.510;10.170;2023-01-15T13:41:31;6.80;99.90
56336;DHT22;42241;53.510;10.170;2023-01-15T13:44:20;6.80;99.90
56336;DHT22;42241;53.510;10.170;2023-01-15T13:46:46;6.80;99.90
56336;DHT22;42241;53.510;10.170;2023-01-15T13:49:16;6.70;99.90
56336;DHT22;42241;53.510;10.170;2023-01-15T13:51:45;6.70;99.90
56336;DHT22;42241;53.510;10.170;2023-01-15T13:54:12;6.70;99.90
56336;DHT22;42241;53.510;10.170;2023-01-15T13:56:40;6.70;99.90
56336;DHT22;42241;53.510;10.170;2023-01-15T13:59:24;6.70;99.90
56336;DHT22;42241;53.510;10.170;2023-01-15T14:01:51;6.80;99.90
56336;DHT22;42241;53.510;10.170;2023-01-15T14:04:16;6.80;99.90
56336;DHT22;42241;53.510;10.170;2023-01-15T14:06:49;6.80;99.90
56336;DHT22;42241;53.510;10.170;2023-01-15T14:19:58;6.80;99.90
56336;DHT22;42241;53.510;10.170;2023-01-15T14:25:15;6.80;99.90
56336;DHT22;42241;53.510;10.170;2023-01-15T14:28:01;6.80;99.90
56336;DHT22;42241;53.510;10.170;2023-01-15T14:33:17;6.80;99.90
56336;DHT22;42241;53.510;10.170;2023-01-15T14:35:45;6.80;99.90
56336;DHT22;42241;53.510;10.170;2023-01-15T14:38:21;6.80;99.90
56336;DHT22;42241;53.510;10.170;2023-01-15T14:40:58;6.80;99.90
56336;DHT22;42241;53.510;10.170;2023-01-15T14:43:25;6.80;99.90
56336;DHT22;42241;53.510;10.170;2023-01-15T14:45:53;6.80;99.90
56336;DHT22;42241;53.510;10.170;2023-01-15T14:50:46;6.80;99.90
56336;DHT22;42241;53.510;10.170;2023-01-15T14:55:42;6.80;99.90
56336;DHT22;42241;53.510;10.170;2023-01-15T14:58:13;6.90;99.90
56336;DHT22;42241;53.510;10.170;2023-01-15T15:00:41;6.90;99.90
56336;DHT22;42241;53.510;10.170;2023-01-15T15:03:19;6.90;99.90
56336;DHT22;42241;53.510;10.170;2023-01-15T15:05:46;6.90;99.90
56336;DHT22;42241;53.510;10.170;2023-01-15T15:08:12;6.90;99.90
56336;DHT22;42241;53.510;10.170;2023-01-15T15:10:42;6.90;99.90
56336;DHT22;42241;53.510;10.170;2023-01-15T15:18:07;6.90;99.90
56336;DHT22;42241;53.510;10.170;2023-01-15T15:26:02;6.80;99.90
56336;DHT22;42241;53.510;10.170;2023-01-15T15:28:27;6.80;99.90
56336;DHT22;42241;53.510;10.170;2023-01-15T15:30:54;6.70;99.90
56336;DHT22;42241;53.510;10.170;2023-01-15T15:33:29;6.60;99.90
56336;DHT22;42241;53.510;10.170;2023-01-15T15:35:58;6.40;99.90
56336;DHT22;42241;53.510;10.170;2023-01-15T15:38:24;6.40;99.90
56336;DHT22;42241;53.510;10.170;2023-01-15T15:40:57;6.40;99.90
56336;DHT22;42241;53.510;10.170;2023-01-15T15:46:26;6.30;99.90
56336;DHT22;42241;53.510;10.170;2023-01-15T15:49:16;6.20;99.90
56336;DHT22;42241;53.510;10.170;2023-01-15T15:51:49;6.10;99.90
56336;DHT22;42241;53.510;10.170;2023-01-15T15:54:23;5.90;99.90
56336;DHT22;42241;53.510;10.170;2023-01-15T15:59:24;5.80;99.90
56336;DHT22;42241;53.510;10.170;2023-01-15T16:01:51;5.80;99.90
56336;DHT22;42241;53.510;10.170;2023-01-15T16:04:17;5.70;99.90
56336;DHT22;42241;53.510;10.170;2023-01-15T16:06:43;5.80;99.90
56336;DHT22;42241;53.510;10.170;2023-01-15T16:09:11;5.80;99.90
56336;DHT22;42241;53.510;10.170;2023-01-15T16:11:37;5.70;99.90
56336;DHT22;42241;53.510;10.170;2023-01-15T16:14:06;5.70;99.90
56336;DHT22;42241;53.510;10.170;2023-01-15T16:16:34;5.60;99.90
56336;DHT22;42241;53.510;10.170;2023-01-15T16:19:02;5.60;99.90
56336;DHT22;42241;53.510;10.170;2023-01-15T16:21:30;5.50;99.90
56336;DHT22;42241;53.510;10.170;2023-01-15T16:23:57;5.60;99.90
56336;DHT22;42241;53.510;10.170;2023-01-15T16:26:27;5.60;99.90
56336;DHT22;42241;53.510;10.170;2023-01-15T16:28:56;5.60;99.90
56336;DHT22;42241;53.510;10.170;2023-01-15T16:31:23;5.60;99.90
56336;DHT22;42241;53.510;10.170;2023-01-15T16:33:56;5.60;99.90
56336;DHT22;42241;53.510;10.170;2023-01-15T16:36:25;5.60;99.90
56336;DHT22;42241;53.510;10.170;2023-01-15T16:38:53;5.50;99.90
56336;DHT22;42241;53.510;10.170;2023-01-15T16:41:20;5.40;99.90
56336;DHT22;42241;53.510;10.170;2023-01-15T16:43:54;5.40;99.90
56336;DHT22;42241;53.510;10.170;2023-01-15T16:46:20;5.30;99.90
56336;DHT22;42241;53.510;10.170;2023-01-15T16:48:46;5.20;99.90
56336;DHT22;42241;53.510;10.170;2023-01-15T16:53:52;5.10;99.90
56336;DHT22;42241;53.510;10.170;2023-01-15T16:59:13;5.10;99.90
56336;DHT22;42241;53.510;10.170;2023-01-15T17:01:42;5.10;99.90
56336;DHT22;42241;53.510;10.170;2023-01-15T17:07:04;5.10;99.90
56336;DHT22;42241;53.510;10.170;2023-01-15T17:09:34;5.10;99.90
56336;DHT22;42241;53.510;10.170;2023-01-15T17:12:07;5.10;99.90
56336;DHT22;42241;53.510;10.170;2023-01-15T17:14:33;5.10;99.90
56336;DHT22;42241;53.510;10.170;2023-01-15T17:19:42;5.10;99.90
56336;DHT22;42241;53.510;10.170;2023-01-15T17:22:20;5.20;99.90
56336;DHT22;42241;53.510;10.170;2023-01-15T17:24:48;5.20;99.90
56336;DHT22;42241;53.510;10.170;2023-01-15T17:27:14;5.20;99.90
56336;DHT22;42241;53.510;10.170;2023-01-15T17:29:39;5.20;99.90
56336;DHT22;42241;53.510;10.170;2023-01-15T17:32:05;5.20;99.90
56336;DHT22;42241;53.510;10.170;2023-01-15T17:34:36;5.30;99.90
56336;DHT22;42241;53.510;10.170;2023-01-15T17:37:01;5.20;99.90
56336;DHT22;42241;53.510;10.170;2023-01-15T17:39:29;5.30;99.90
56336;DHT22;42241;53.510;10.170;2023-01-15T17:41:55;5.30;99.90
56336;DHT22;42241;53.510;10.170;2023-01-15T17:44:21;5.30;99.90
56336;DHT22;42241;53.510;10.170;2023-01-15T17:46:49;5.30;99.90
56336;DHT22;42241;53.510;10.170;2023-01-15T17:49:14;5.40;99.90
56336;DHT22;42241;53.510;10.170;2023-01-15T17:51:40;5.30;99.90
56336;DHT22;42241;53.510;10.170;2023-01-15T17:54:06;5.30;99.90
56336;DHT22;42241;53.510;10.170;2023-01-15T17:56:33;5.40;99.90
56336;DHT22;42241;53.510;10.170;2023-01-15T17:59:20;5.40;99.90
56336;DHT22;42241;53.510;10.170;2023-01-15T18:02:08;5.40;99.90
56336;DHT22;42241;53.510;10.170;2023-01-15T18:04:53;5.40;99.90
56336;DHT22;42241;53.510;10.170;2023-01-15T18:07:39;5.40;99.90
56336;DHT22;42241;53.510;10.170;2023-01-15T18:10:08;5.40;99.90
56336;DHT22;42241;53.510;10.170;2023-01-15T18:12:34;5.50;99.90
56336;DHT22;42241;53.510;10.170;2023-01-15T18:15:00;5.40;99.90
56336;DHT22;42241;53.510;10.170;2023-01-15T18:17:25;5.50;99.90
56336;DHT22;42241;53.510;10.170;2023-01-15T18:19:55;5.50;99.90